Time;durP1;ratioP1;P1;durP2;ratioP2;P2;SDS_P1;SDS_P2;PMS_P1;PMS_P2;Temp;Humidity;BMP_temperature;BMP_pressure;BME280_temperature;BME280_humidity;BME280_pressure;Samples;Min_cycle;Max_cycle;Signal;HPM_P1;HPM_P2
2022/07/06 00:01:36;;;;;;;43.08;41.28;;;;;;;;;;5007429;28;20026;-86
2022/07/06 00:04:03;;;;;;;36.80;35.30;;;;;;;;;;5007779;28;20034;-88
2022/07/06 00:06:29;;;;;;;40.40;38.63;;;;;;;;;;5008169;28;20057;-88
2022/07/06 00:08:55;;;;;;;40.38;38.75;;;;;;;;;;5007256;28;20046;-87
2022/07/06 00:11:21;;;;;;;44.28;42.17;;;;;;;;;;5008816;28;20109;-87
2022/07/06 00:13:47;;;;;;;42.97;41.25;;;;;;;;;;5005409;28;20028;-88
2022/07/06 00:16:13;;;;;;;38.53;36.92;;;;;;;;;;5007407;28;20038;-87
2022/07/06 00:18:39;;;;;;;38.97;37.38;;;;;;;;;;5006816;28;20033;-87
2022/07/06 00:21:06;;;;;;;43.00;41.25;;;;;;;;;;5007525;28;20076;-88
2022/07/06 00:23:32;;;;;;;40.50;38.85;;;;;;;;;;5005876;28;20021;-87
2022/07/06 00:25:58;;;;;;;39.17;37.58;;;;;;;;;;5007984;28;20033;-87
2022/07/06 00:28:24;;;;;;;45.03;43.15;;;;;;;;;;5006991;28;20033;-86
2022/07/06 00:30:50;;;;;;;45.28;43.47;;;;;;;;;;5008114;28;20042;-88
2022/07/06 00:33:16;;;;;;;47.22;45.33;;;;;;;;;;5007211;28;20030;-87
2022/07/06 00:35:42;;;;;;;48.47;46.47;;;;;;;;;;5007510;28;20732;-88
2022/07/06 00:38:08;;;;;;;47.15;45.25;;;;;;;;;;5006629;28;20061;-88
2022/07/06 00:40:34;;;;;;;45.65;43.85;;;;;;;;;;5007028;28;20022;-87
2022/07/06 00:43:00;;;;;;;50.17;48.08;;;;;;;;;;5006584;28;20037;-87
2022/07/06 00:45:26;;;;;;;44.80;43.00;;;;;;;;;;5006941;28;20515;-88
2022/07/06 00:47:53;;;;;;;48.13;46.08;;;;;;;;;;5007099;28;20033;-88
2022/07/06 00:50:22;;;;;;;49.58;47.58;;;;;;;;;;5007475;28;20719;-88
2022/07/06 00:52:53;;;;;;;47.72;45.72;;;19.20;68.80;;;;;;5004877;28;20045;-87
2022/07/06 00:55:26;;;;;;;49.85;47.42;;;19.10;68.90;;;;;;5005623;28;20029;-87
2022/07/06 00:57:52;;;;;;;42.67;40.95;;;;;;;;;;5008244;28;20029;-88
2022/07/06 01:00:19;;;;;;;47.38;44.90;;;;;;;;;;5006255;28;20026;-87
2022/07/06 01:02:46;;;;;;;48.55;46.55;;;;;;;;;;5006618;28;20038;-87
2022/07/06 01:05:12;;;;;;;46.78;44.75;;;;;;;;;;5007449;28;20030;-88
2022/07/06 01:07:40;;;;;;;49.80;47.67;;;19.30;68.00;;;;;;5007959;28;20535;-88
2022/07/06 01:10:07;;;;;;;45.00;42.92;;;;;;;;;;5009084;28;20042;-87
2022/07/06 01:12:36;;;;;;;46.97;45.10;;;19.20;68.70;;;;;;5011213;28;20489;-88
2022/07/06 01:15:22;;;;;;;50.25;48.25;;;;;;;;;;5024800;28;20046;-88
2022/07/06 01:17:49;;;;;;;45.37;43.53;;;;;;;;;;5009851;28;20041;-88
2022/07/06 01:20:22;;;;;;;46.00;44.10;;;19.10;69.20;;;;;;5010046;28;20026;-88
2022/07/06 01:22:49;;;;;;;50.65;48.55;;;;;;;;;;5010072;28;20041;-88
2022/07/06 01:25:15;;;;;;;54.10;51.88;;;;;;;;;;5008447;28;20036;-88
2022/07/06 01:27:42;;;;;;;49.35;47.30;;;;;;;;;;5011368;28;20058;-88
2022/07/06 01:30:10;;;;;;;49.87;47.80;;;;;;;;;;5009920;28;20117;-87
2022/07/06 01:32:36;;;;;;;49.13;47.05;;;;;;;;;;5010075;28;20133;-88
2022/07/06 01:35:02;;;;;;;51.10;49.00;;;;;;;;;;5009225;28;20022;-88
2022/07/06 01:37:28;;;;;;;51.92;49.63;;;;;;;;;;5009758;28;20028;-87
2022/07/06 01:39:58;;;;;;;52.28;50.08;;;18.90;69.40;;;;;;5010844;28;20042;-88
2022/07/06 01:42:24;;;;;;;51.38;49.28;;;;;;;;;;5010019;28;20120;-87
2022/07/06 01:44:50;;;;;;;50.78;48.50;;;;;;;;;;5009806;28;20488;-87
2022/07/06 01:47:16;;;;;;;53.30;51.00;;;;;;;;;;5010811;28;20030;-87
2022/07/06 01:49:42;;;;;;;50.25;48.25;;;;;;;;;;5009733;28;20672;-88
2022/07/06 01:52:08;;;;;;;51.53;49.42;;;;;;;;;;5009818;28;20053;-88
2022/07/06 01:54:34;;;;;;;49.17;47.17;;;;;;;;;;5010296;28;20399;-88
2022/07/06 01:57:00;;;;;;;52.15;49.95;;;;;;;;;;5008216;28;20599;-87
2022/07/06 01:59:26;;;;;;;52.67;50.50;;;;;;;;;;5009416;28;20116;-88
2022/07/06 02:01:52;;;;;;;53.13;50.92;;;;;;;;;;5009727;28;20021;-87
2022/07/06 02:04:18;;;;;;;50.70;48.42;;;;;;;;;;5009056;28;20125;-87
2022/07/06 02:06:44;;;;;;;54.08;51.88;;;;;;;;;;5009012;28;20587;-87
2022/07/06 02:09:10;;;;;;;56.83;54.42;;;;;;;;;;5008773;28;20038;-87
2022/07/06 02:11:36;;;;;;;53.20;50.97;;;;;;;;;;5009659;28;20492;-88
2022/07/06 02:14:02;;;;;;;52.95;50.50;;;;;;;;;;5009958;28;20108;-88
2022/07/06 02:16:28;;;;;;;53.75;51.53;;;;;;;;;;5009120;28;20129;-88
2022/07/06 02:18:54;;;;;;;52.90;50.60;;;;;;;;;;5006274;28;20540;-87
2022/07/06 02:21:20;;;;;;;51.67;49.55;;;;;;;;;;5007495;28;20401;-88
2022/07/06 02:23:46;;;;;;;52.50;50.30;;;;;;;;;;5008838;28;20030;-87
2022/07/06 02:26:12;;;;;;;51.05;48.85;;;;;;;;;;5010022;28;20057;-87
2022/07/06 02:28:38;;;;;;;51.03;48.90;;;;;;;;;;5008660;28;20531;-88
2022/07/06 02:31:04;;;;;;;54.85;52.63;;;;;;;;;;5009139;28;20041;-87
2022/07/06 02:33:31;;;;;;;53.58;51.33;;;;;;;;;;4999454;28;20028;-88
2022/07/06 02:35:57;;;;;;;49.05;46.95;;;;;;;;;;5008862;28;20030;-88
2022/07/06 02:38:22;;;;;;;55.35;53.03;;;;;;;;;;5009572;28;20018;-87
2022/07/06 02:40:48;;;;;;;20.17;19.17;;;;;;;;;;5008734;28;20100;-87
2022/07/06 02:43:15;;;;;;;20.05;19.25;;;;;;;;;;5008699;28;20403;-87
2022/07/06 02:45:40;;;;;;;20.17;19.27;;;;;;;;;;5009674;28;20064;-88
2022/07/06 02:48:07;;;;;;;17.00;16.10;;;;;;;;;;5008606;28;20532;-88
2022/07/06 02:50:33;;;;;;;2.05;1.95;;;;;;;;;;5008690;28;20121;-87
2022/07/06 02:53:00;;;;;;;3.22;2.45;;;;;;;;;;5008901;28;20180;-87
2022/07/06 02:55:26;;;;;;;2.28;2.17;;;;;;;;;;5008664;28;20038;-88
2022/07/06 02:57:52;;;;;;;3.05;2.38;;;;;;;;;;5009246;28;20034;-87
2022/07/06 03:00:18;;;;;;;2.35;2.25;;;;;;;;;;5007059;28;20033;-88
2022/07/06 03:02:44;;;;;;;2.60;2.50;;;;;;;;;;5007886;28;20724;-87
2022/07/06 03:05:11;;;;;;;2.30;2.20;;;;;;;;;;5008725;28;20022;-87
2022/07/06 03:07:37;;;;;;;2.28;2.17;;;;;;;;;;5008182;28;20034;-88
2022/07/06 03:10:03;;;;;;;2.53;2.33;;;;;;;;;;5008263;28;20034;-88
2022/07/06 03:12:29;;;;;;;2.55;2.10;;;;;;;;;;5008885;28;20117;-87
2022/07/06 03:14:55;;;;;;;2.33;2.20;;;;;;;;;;5007914;28;20068;-87
2022/07/06 03:17:21;;;;;;;2.38;2.20;;;;;;;;;;5007650;28;20509;-88
2022/07/06 03:19:47;;;;;;;2.42;2.33;;;;;;;;;;5007791;28;20033;-88
2022/07/06 03:22:13;;;;;;;2.53;2.33;;;;;;;;;;5007898;28;20025;-87
2022/07/06 03:24:40;;;;;;;2.10;2.00;;;;;;;;;;4998929;28;20022;-88
2022/07/06 03:27:06;;;;;;;2.60;2.50;;;;;;;;;;5007929;28;20900;-88
2022/07/06 03:29:32;;;;;;;2.70;2.55;;;;;;;;;;5007976;28;20049;-87
2022/07/06 03:31:58;;;;;;;2.42;2.33;;;;;;;;;;5008293;28;20022;-87
2022/07/06 03:34:24;;;;;;;2.60;2.40;;;;;;;;;;5008246;28;20030;-87
2022/07/06 03:36:50;;;;;;;3.53;2.13;;;;;;;;;;5008386;28;20480;-88
2022/07/06 03:39:16;;;;;;;2.28;2.17;;;;;;;;;;5007628;28;20058;-87
2022/07/06 03:41:42;;;;;;;2.90;2.70;;;;;;;;;;5007772;28;20749;-87
2022/07/06 03:44:08;;;;;;;2.72;2.53;;;;;;;;;;5008689;28;20022;-88
2022/07/06 03:46:34;;;;;;;2.17;2.08;;;;;;;;;;5008301;28;20030;-87
2022/07/06 03:49:00;;;;;;;2.92;2.58;;;;;;;;;;5008235;28;20088;-87
2022/07/06 03:51:26;;;;;;;2.28;2.13;;;;;;;;;;5022944;28;20038;-87
2022/07/06 03:53:52;;;;;;;4.78;2.78;;;;;;;;;;5007592;28;20099;-87
2022/07/06 03:56:30;;;;;;;2.42;2.22;;;;;;;;;;5008890;28;20042;-87
2022/07/06 03:59:00;;;;;;;9.35;3.67;;;;;;;;;;5001997;28;20028;-89
2022/07/06 04:01:26;;;;;;;2.28;2.17;;;;;;;;;;5006140;28;20141;-87
2022/07/06 04:03:52;;;;;;;2.13;2.03;;;;;;;;;;5008623;28;20034;-87
2022/07/06 04:06:18;;;;;;;2.72;2.63;;;;;;;;;;5007435;28;20125;-87
2022/07/06 04:08:44;;;;;;;3.33;3.13;;;;;;;;;;5007052;28;20029;-86
2022/07/06 04:11:10;;;;;;;2.42;2.33;;;;;;;;;;4998399;28;20109;-87
2022/07/06 04:13:38;;;;;;;2.75;2.55;;;;;;;;;;5007251;28;20116;-87
2022/07/06 04:16:05;;;;;;;2.45;2.25;;;17.60;91.80;;;;;;5007400;28;20778;-87
2022/07/06 04:18:31;;;;;;;2.75;2.65;;;;;;;;;;5007821;28;20459;-88
2022/07/06 04:20:57;;;;;;;3.03;2.83;;;;;;;;;;5006382;28;20041;-88
2022/07/06 04:23:23;;;;;;;2.80;2.60;;;;;;;;;;5000258;28;20029;-87
2022/07/06 04:25:49;;;;;;;3.13;3.03;;;;;;;;;;5007291;28;20477;-87
2022/07/06 04:28:15;;;;;;;2.75;2.63;;;;;;;;;;5006989;28;20029;-88
2022/07/06 04:30:41;;;;;;;2.80;2.60;;;;;;;;;;5008528;28;20057;-87
2022/07/06 04:33:07;;;;;;;3.10;2.58;;;;;;;;;;5007069;28;20026;-87
2022/07/06 04:35:33;;;;;;;3.05;2.47;;;;;;;;;;5006991;28;20030;-87
2022/07/06 04:37:59;;;;;;;2.38;2.28;;;;;;;;;;5007723;28;20053;-88
2022/07/06 04:40:25;;;;;;;2.47;2.38;;;;;;;;;;5007251;28;20080;-86
2022/07/06 04:42:51;;;;;;;3.13;2.92;;;;;;;;;;5011286;28;20042;-86
2022/07/06 04:45:17;;;;;;;3.22;2.92;;;;;;;;;;5011006;28;20108;-87
2022/07/06 04:47:44;;;;;;;3.88;3.03;;;;;;;;;;5010796;28;20033;-87
2022/07/06 04:50:10;;;;;;;2.70;2.60;;;;;;;;;;5011545;28;20034;-87
2022/07/06 04:52:36;;;;;;;2.63;2.53;;;;;;;;;;5010413;28;20033;-88
2022/07/06 04:55:04;;;;;;;3.17;2.88;;;;;;;;;;5011478;28;20033;-87
2022/07/06 04:57:30;;;;;;;2.95;2.75;;;;;;;;;;5011145;28;20535;-87
2022/07/06 04:59:56;;;;;;;2.90;2.70;;;;;;;;;;5009445;28;20038;-88
2022/07/06 05:02:22;;;;;;;3.03;2.83;;;;;;;;;;5011506;28;20071;-87
2022/07/06 05:04:48;;;;;;;2.60;2.50;;;;;;;;;;5010133;28;20056;-88
2022/07/06 05:07:14;;;;;;;3.13;2.83;;;;;;;;;;5009694;28;20634;-87
2022/07/06 05:09:40;;;;;;;5.45;3.25;;;;;;;;;;5011172;28;20128;-87
2022/07/06 05:12:07;;;;;;;2.80;2.60;;;;;;;;;;5010441;28;20563;-87
2022/07/06 05:14:33;;;;;;;4.43;3.00;;;;;;;;;;5009381;28;20060;-88
2022/07/06 05:16:59;;;;;;;3.47;3.22;;;;;;;;;;5010828;28;20041;-86
2022/07/06 05:19:25;;;;;;;2.83;2.72;;;;;;;;;;5010439;28;20025;-87
2022/07/06 05:21:51;;;;;;;2.90;2.67;;;;;;;;;;5011220;28;20053;-87
2022/07/06 05:24:18;;;;;;;2.85;2.70;;;;;;;;;;5010357;28;20076;-87
2022/07/06 05:26:45;;;;;;;3.60;2.78;;;;;;;;;;5010484;28;20045;-87
2022/07/06 05:29:11;;;;;;;3.13;2.92;;;;;;;;;;5011147;28;20040;-87
2022/07/06 05:31:37;;;;;;;3.40;3.15;;;;;;;;;;5009534;28;20037;-87
2022/07/06 05:34:03;;;;;;;3.08;2.88;;;18.50;72.90;;;;;;5006329;28;20044;-88
2022/07/06 05:36:29;;;;;;;3.05;2.85;;;;;;;;;;5008880;28;20519;-87
2022/07/06 05:38:55;;;;;;;3.20;3.00;;;;;;;;;;5008288;28;20448;-87
2022/07/06 05:41:21;;;;;;;3.22;3.03;;;;;;;;;;5007815;28;20124;-87
2022/07/06 05:43:47;;;;;;;6.00;2.88;;;;;;;;;;5008783;28;20121;-87
2022/07/06 05:46:13;;;;;;;4.97;3.42;;;;;;;;;;5008160;28;20037;-87
2022/07/06 05:51:24;;;;;;;4.10;3.78;;;;;;;;;;5003385;28;20524;-85
2022/07/06 05:53:49;;;;;;;2.40;2.30;;;;;;;;;;5006873;28;20441;-87
2022/07/06 05:56:16;;;;;;;2.08;1.98;;;;;;;;;;5009180;28;20038;-85
2022/07/06 05:58:42;;;;;;;2.45;2.00;;;;;;;;;;5008344;28;20033;-87
2022/07/06 06:01:08;;;;;;;2.10;2.00;;;;;;;;;;5007155;28;20038;-87
2022/07/06 06:03:34;;;;;;;2.28;2.17;;;;;;;;;;5008684;28;20037;-87
2022/07/06 06:06:00;;;;;;;2.10;2.00;;;;;;;;;;4996127;28;20038;-86
2022/07/06 06:08:26;;;;;;;1.88;1.77;;;;;;;;;;5009590;28;20038;-87
2022/07/06 06:10:53;;;;;;;22.23;2.95;;;;;;;;;;5006074;28;20030;-87
2022/07/06 06:13:19;;;;;;;3.45;2.03;;;;;;;;;;5008093;28;20034;-87
2022/07/06 06:15:45;;;;;;;3.22;2.25;;;;;;;;;;5005541;28;20547;-86
2022/07/06 06:18:11;;;;;;;2.10;2.00;;;;;;;;;;5007506;28;20040;-81
2022/07/06 06:20:37;;;;;;;2.25;1.83;;;;;;;;;;5008240;28;20030;-81
2022/07/06 06:23:04;;;;;;;1.85;1.75;;;;;;;;;;4999515;28;20037;-80
2022/07/06 06:25:30;;;;;;;3.42;1.70;;;;;;;;;;5001523;28;20030;-82
2022/07/06 06:27:56;;;;;;;2.40;1.92;;;;;;;;;;5006477;28;20112;-82
2022/07/06 06:30:22;;;;;;;3.80;1.67;;;;;;;;;;5006063;28;20511;-81
2022/07/06 06:32:48;;;;;;;3.58;2.25;;;;;;;;;;5006555;28;20017;-82
2022/07/06 06:35:14;;;;;;;1.90;1.60;;;;;;;;;;5008344;28;20080;-82
2022/07/06 06:37:41;;;;;;;2.55;1.85;;;;;;;;;;5006850;28;20096;-82
2022/07/06 06:40:08;;;;;;;3.55;2.03;;;20.70;76.20;;;;;;5006056;28;20528;-82
2022/07/06 06:42:37;;;;;;;2.42;1.50;;;;;;;;;;5007275;28;20021;-82
2022/07/06 06:45:05;;;;;;;3.40;1.70;;;21.30;66.00;;;;;;5006380;28;20041;-82
2022/07/06 06:47:30;;;;;;;2.00;1.48;;;;;;;;;;5008319;28;20022;-82
2022/07/06 06:49:56;;;;;;;5.22;1.90;;;;;;;;;;5006857;28;20053;-82
2022/07/06 06:52:23;;;;;;;1.40;1.30;;;;;;;;;;4999172;28;20041;-82
2022/07/06 06:54:49;;;;;;;1.55;1.23;;;;;;;;;;5003969;28;20166;-83
2022/07/06 06:57:15;;;;;;;7.82;1.40;;;;;;;;;;4997823;28;20460;-82
2022/07/06 06:59:41;;;;;;;1.20;1.20;;;;;;;;;;4998118;28;20104;-82
2022/07/06 07:02:07;;;;;;;1.00;1.00;;;;;;;;;;4994373;28;20022;-81
2022/07/06 07:04:33;;;;;;;1.30;1.20;;;;;;;;;;4997723;28;20485;-82
2022/07/06 07:06:59;;;;;;;3.95;1.52;;;;;;;;;;5002614;28;20036;-83
2022/07/06 07:09:25;;;;;;;2.60;2.42;;;;;;;;;;5005163;28;20052;-82
2022/07/06 07:11:51;;;;;;;1.27;1.17;;;;;;;;;;5004442;28;20127;-82
2022/07/06 07:14:17;;;;;;;1.17;1.08;;;;;;;;;;4996339;28;20123;-82
2022/07/06 07:16:43;;;;;;;4.82;1.27;;;;;;;;;;4998866;28;20770;-82
2022/07/06 07:19:09;;;;;;;3.17;1.50;;;;;;;;;;5001488;28;20037;-81
2022/07/06 07:21:35;;;;;;;2.15;1.45;;;;;;;;;;4998618;28;20149;-82
2022/07/06 07:24:01;;;;;;;1.40;1.00;;;;;;;;;;4997893;28;20040;-81
2022/07/06 07:26:27;;;;;;;2.65;1.35;;;;;;;;;;5006521;28;20031;-82
2022/07/06 07:28:53;;;;;;;1.30;1.20;;;;;;;;;;5005599;28;20672;-83
2022/07/06 07:31:19;;;;;;;2.22;1.50;;;;;;;;;;4998139;28;20038;-83
2022/07/06 07:33:45;;;;;;;1.15;1.05;;;;;;;;;;5005709;28;20101;-83
2022/07/06 07:36:11;;;;;;;5.93;1.35;;;;;;;;;;5001130;28;20041;-82
2022/07/06 07:38:37;;;;;;;1.10;1.00;;;;;;;;;;5002112;28;20037;-82
2022/07/06 07:41:03;;;;;;;5.85;1.20;;;;;;;;;;5007450;28;20113;-82
2022/07/06 07:43:29;;;;;;;1.35;1.13;;;;;;;;;;5001997;28;20112;-82
2022/07/06 07:45:55;;;;;;;1.23;1.00;;;;;;;;;;5002562;28;20575;-82
2022/07/06 07:48:21;;;;;;;6.53;0.70;;;;;;;;;;4996334;28;20548;-82
2022/07/06 07:50:47;;;;;;;1.73;1.10;;;;;;;;;;5002632;28;20037;-82
2022/07/06 07:53:13;;;;;;;1.55;0.90;;;;;;;;;;5003427;28;20056;-82
2022/07/06 07:55:39;;;;;;;1.70;0.80;;;;;;;;;;4993482;28;20030;-81
2022/07/06 07:58:05;;;;;;;3.28;0.60;;;;;;;;;;5003173;28;20025;-82
2022/07/06 08:00:31;;;;;;;2.50;1.25;;;;;;;;;;5002586;28;20026;-82
2022/07/06 08:02:57;;;;;;;1.88;0.52;;;;;;;;;;5001749;28;20036;-82
2022/07/06 08:05:23;;;;;;;0.70;0.70;;;;;;;;;;5003855;28;20042;-83
2022/07/06 08:07:49;;;;;;;0.75;0.35;;;;;;;;;;5002839;28;20038;-82
2022/07/06 08:10:15;;;;;;;1.52;0.40;;;;;;;;;;5002316;28;20052;-83
2022/07/06 08:12:41;;;;;;;1.85;0.30;;;;;;;;;;5003735;28;20034;-82
2022/07/06 08:15:07;;;;;;;1.90;0.75;;;33.30;44.90;;;;;;4998983;28;20061;-83
2022/07/06 08:17:33;;;;;;;2.05;0.40;;;;;;;;;;5006294;28;20029;-82
2022/07/06 08:20:00;;;;;;;0.88;0.20;;;;;;;;;;4998751;28;20454;-82
2022/07/06 08:22:26;;;;;;;;;;;34.80;34.90;;;;;;5003732;28;20022;-82
2022/07/06 08:24:53;;;;;;;0.73;0.40;;;;;;;;;;5001568;28;19913;-84
2022/07/06 08:27:19;;;;;;;1.63;0.47;;;;;;;;;;5004862;28;20022;-83
2022/07/06 08:29:45;;;;;;;2.28;1.05;;;;;;;;;;5005850;28;20073;-82
2022/07/06 08:32:11;;;;;;;1.38;0.65;;;;;;;;;;5004920;28;20184;-83
2022/07/06 08:34:37;;;;;;;0.88;0.60;;;;;;;;;;5005238;28;20393;-83
2022/07/06 08:37:03;;;;;;;2.17;0.50;;;;;;;;;;5004717;28;20038;-83
2022/07/06 08:39:29;;;;;;;2.50;0.40;;;;;;;;;;5005124;28;20451;-83
2022/07/06 08:41:56;;;;;;;2.13;0.38;;;36.20;32.80;;;;;;5003262;28;20033;-83
2022/07/06 08:44:23;;;;;;;2.35;0.50;;;36.50;32.50;;;;;;5005529;28;20512;-82
2022/07/06 08:46:49;;;;;;;3.17;0.82;;;;;;;;;;5003937;28;20127;-83
2022/07/06 08:49:16;;;;;;;0.85;0.50;;;37.30;32.20;;;;;;5003713;28;20084;-82
2022/07/06 08:51:42;;;;;;;3.42;0.50;;;;;;;;;;5007288;28;20071;-83
2022/07/06 08:54:09;;;;;;;0.50;0.28;;;;;;;;;;5007117;28;20025;-83
2022/07/06 08:56:35;;;;;;;7.40;1.17;;;;;;;;;;5006520;28;20037;-82
2022/07/06 08:59:01;;;;;;;1.02;0.40;;;;;;;;;;5005513;28;20036;-82
2022/07/06 09:01:27;;;;;;;2.42;0.60;;;;;;;;;;5004287;28;20501;-82
2022/07/06 09:03:55;;;;;;;0.90;0.80;;;36.80;32.00;;;;;;5005464;28;20131;-83
2022/07/06 09:06:24;;;;;;;1.00;0.38;;;37.20;31.30;;;;;;5004155;28;20517;-82
2022/07/06 09:08:53;;;;;;;1.08;0.30;;;37.30;30.90;;;;;;5003936;28;20036;-82
2022/07/06 09:11:24;;;;;;;0.20;0.20;;;37.30;31.50;;;;;;5005157;28;20040;-83
2022/07/06 09:13:52;;;;;;;7.50;0.77;;;;;;;;;;4999301;28;20028;-82
2022/07/06 09:16:27;;;;;;;3.08;0.50;;;37.90;30.90;;;;;;5008073;28;20044;-82
2022/07/06 09:18:53;;;;;;;0.98;0.40;;;;;;;;;;5009944;28;20042;-82
2022/07/06 09:21:27;;;;;;;3.15;0.65;;;37.40;30.10;;;;;;5002645;28;20034;-81
2022/07/06 09:23:56;;;;;;;1.88;1.02;;;37.90;30.70;;;;;;5002865;28;20097;-82
2022/07/06 09:26:23;;;;;;;0.90;0.40;;;38.10;30.40;;;;;;5010115;28;20105;-83
2022/07/06 09:28:49;;;;;;;1.00;0.40;;;;;;;;;;5006365;28;20061;-82
2022/07/06 09:31:15;;;;;;;0.68;0.43;;;;;;;;;;5006282;28;20504;-82
2022/07/06 09:33:53;;;;;;;0.20;0.20;;;38.00;30.80;;;;;;5008787;28;20033;-82
2022/07/06 09:36:47;;;;;;;1.00;0.40;;;37.60;30.50;;;;;;5002706;28;20443;-80
2022/07/06 09:39:20;;;;;;;1.20;0.60;;;38.00;30.40;;;;;;5002897;28;20041;-81
2022/07/06 09:41:47;;;;;;;0.63;0.40;;;38.40;50.00;;;;;;5005146;28;20046;-80
2022/07/06 09:44:13;;;;;;;0.70;0.45;;;;;;;;;;5006483;28;20042;-81
2022/07/06 09:46:42;;;;;;;5.65;0.50;;;38.80;46.20;;;;;;5006512;28;20056;-81
2022/07/06 09:49:09;;;;;;;3.03;0.50;;;;;;;;;;5005840;28;20049;-81
2022/07/06 09:51:38;;;;;;;0.75;0.38;;;38.20;29.90;;;;;;5001983;28;20038;-81
2022/07/06 09:54:08;;;;;;;2.72;0.40;;;;;;;;;;5004374;28;20036;-81
2022/07/06 09:56:41;;;;;;;1.35;0.60;;;38.00;30.20;;;;;;5008799;28;20038;-80
2022/07/06 09:59:14;;;;;;;1.88;0.50;;;38.50;30.10;;;;;;5008384;28;20026;-79
2022/07/06 10:01:40;;;;;;;0.75;0.45;;;39.00;49.50;;;;;;5007772;28;20026;-81
2022/07/06 10:04:08;;;;;;;1.63;0.32;;;38.50;30.00;;;;;;5008107;28;20531;-81
2022/07/06 10:06:34;;;;;;;0.57;0.40;;;;;;;;;;5003352;28;20060;-80
2022/07/06 10:09:00;;;;;;;0.40;0.35;;;;;;;;;;5002045;28;20073;-80
2022/07/06 10:11:28;;;;;;;1.17;0.65;;;38.50;28.70;;;;;;5002526;28;20034;-81
2022/07/06 10:13:56;;;;;;;0.50;0.40;;;38.20;30.40;;;;;;5006024;28;20034;-81
2022/07/06 10:16:26;;;;;;;1.00;0.68;;;38.10;29.30;;;;;;5006644;28;20065;-80
2022/07/06 10:18:54;;;;;;;0.50;0.30;;;38.70;29.40;;;;;;5007796;28;20054;-82
2022/07/06 10:21:22;;;;;;;0.77;0.40;;;38.70;29.60;;;;;;5003272;28;20050;-81
2022/07/06 10:23:48;;;;;;;0.77;0.40;;;;;;;;;;5007053;28;20041;-81
2022/07/06 10:26:16;;;;;;;4.00;0.50;;;38.70;29.10;;;;;;5008129;28;20044;-81
2022/07/06 10:28:42;;;;;;;3.75;0.88;;;37.80;28.80;;;;;;5001967;28;20037;-82
2022/07/06 10:31:08;;;;;;;1.20;0.28;;;;;;;;;;5005096;28;20488;-82
2022/07/06 10:33:34;;;;;;;0.88;0.30;;;38.20;29.00;;;;;;5004867;28;20046;-82
2022/07/06 10:36:01;;;;;;;0.35;0.30;;;;;;;;;;5001906;28;20045;-81
2022/07/06 10:38:34;;;;;;;1.75;0.40;;;38.20;30.40;;;;;;4992035;28;20104;-81
2022/07/06 10:41:05;;;;;;;1.60;0.82;;;;;;;;;;5001117;28;20113;-80
2022/07/06 10:43:51;;;;;;;0.88;0.40;;;37.80;30.70;;;;;;5000367;28;20018;-80
2022/07/06 10:46:19;;;;;;;0.43;0.43;;;;;;;;;;4996076;28;20038;-80
2022/07/06 10:48:46;;;;;;;0.88;0.47;;;37.80;30.00;;;;;;4998852;28;20389;-80
2022/07/06 10:51:22;;;;;;;0.93;0.40;;;37.50;30.00;;;;;;4999810;28;20044;-81
2022/07/06 10:53:58;;;;;;;1.60;0.50;;;37.10;30.60;;;;;;4999541;28;20489;-81
2022/07/06 10:56:38;;;;;;;2.75;0.68;;;37.70;37.00;;;;;;4999156;28;20030;-81
2022/07/06 10:59:23;;;;;;;1.23;0.50;;;36.90;49.90;;;;;;5001916;28;20026;-81
2022/07/06 11:02:18;;;;;;;3.13;0.38;;;36.50;30.30;;;;;;4999273;28;20032;-81
2022/07/06 11:04:47;;;;;;;2.38;0.88;;;35.80;46.70;;;;;;4999809;28;20049;-81
2022/07/06 11:07:18;;;;;;;1.08;0.30;;;36.00;46.70;;;;;;4999734;28;20504;-81
2022/07/06 11:09:58;;;;;;;0.65;0.50;;;34.70;31.90;;;;;;4997163;28;20045;-81
2022/07/06 11:12:24;;;;;;;0.90;0.50;;;34.30;52.80;;;;;;4997892;28;20049;-81
2022/07/06 11:14:51;;;;;;;2.47;1.00;;;33.40;33.90;;;;;;5001352;28;20041;-81
2022/07/06 11:17:18;;;;;;;1.42;0.60;;;33.10;45.80;;;;;;5008157;28;20578;-81
2022/07/06 11:19:57;;;;;;;0.77;0.30;;;32.80;53.90;;;;;;5004876;28;20145;-81
2022/07/06 11:22:24;;;;;;;0.30;0.30;;;32.40;51.10;;;;;;5006415;28;20053;-82
2022/07/06 11:24:51;;;;;;;2.05;0.50;;;;;;;;;;5008115;28;20046;-82
2022/07/06 11:27:17;;;;;;;0.65;0.40;;;;;;;;;;5006818;28;20056;-81
2022/07/06 11:29:44;;;;;;;3.13;0.57;;;;;;;;;;5006017;28;20041;-82
2022/07/06 11:32:11;;;;;;;0.63;0.63;;;30.70;36.10;;;;;;5007464;28;20076;-82
2022/07/06 11:34:43;;;;;;;1.52;0.65;;;30.40;38.30;;;;;;5006493;28;20496;-82
2022/07/06 11:37:10;;;;;;;1.73;0.50;;;;;;;;;;5006565;28;20030;-81
2022/07/06 11:39:40;;;;;;;0.60;0.60;;;30.20;37.60;;;;;;5007503;28;20521;-82
2022/07/06 11:42:07;;;;;;;1.60;0.88;;;30.10;38.70;;;;;;5006387;28;20045;-82
2022/07/06 11:44:34;;;;;;;1.15;0.73;;;30.30;38.50;;;;;;5007684;28;20040;-82
2022/07/06 11:47:02;;;;;;;1.40;0.80;;;;;;;;;;5007360;28;20625;-81
2022/07/06 11:49:28;;;;;;;1.95;0.98;;;;;;;;;;5006204;28;20080;-81
2022/07/06 11:51:54;;;;;;;1.52;1.10;;;;;;;;;;5006951;28;20052;-81
2022/07/06 11:54:21;;;;;;;5.13;1.13;;;29.40;40.10;;;;;;5006399;28;20121;-81
2022/07/06 11:57:00;;;;;;;0.63;0.63;;;29.30;40.60;;;;;;5006256;28;20781;-81
2022/07/06 11:59:38;;;;;;;1.60;1.02;;;29.30;41.30;;;;;;4997537;28;20041;-82
2022/07/06 12:02:09;;;;;;;0.95;0.90;;;29.20;41.20;;;;;;5006375;28;20025;-82
2022/07/06 12:04:37;;;;;;;1.10;1.00;;;29.00;39.30;;;;;;5005906;28;20117;-81
2022/07/06 12:07:08;;;;;;;1.85;1.33;;;27.50;39.50;;;;;;5007050;28;20030;-81
2022/07/06 12:09:38;;;;;;;1.23;1.20;;;28.90;40.50;;;;;;5007185;28;20072;-81
2022/07/06 12:12:05;;;;;;;2.65;1.15;;;28.60;60.80;;;;;;5006356;28;20095;-81
2022/07/06 12:14:34;;;;;;;1.55;1.38;;;28.70;42.70;;;;;;5006107;28;20046;-81
2022/07/06 12:17:05;;;;;;;1.88;1.77;;;28.50;40.80;;;;;;5006383;28;20018;-80
2022/07/06 12:19:31;;;;;;;2.63;1.50;;;;;;;;;;5005901;28;20117;-80
2022/07/06 12:21:58;;;;;;;15.52;2.22;;;;;;;;;;5007602;28;20080;-80
2022/07/06 12:24:27;;;;;;;1.00;1.00;;;28.40;40.20;;;;;;5004670;28;20037;-80
2022/07/06 12:26:54;;;;;;;6.28;1.08;;;28.40;40.60;;;;;;5005755;28;20040;-81
2022/07/06 12:29:21;;;;;;;1.50;1.20;;;;;;;;;;5007314;28;20547;-80
2022/07/06 12:31:55;;;;;;;2.83;2.17;;;28.40;64.10;;;;;;5005925;28;20103;-81
2022/07/06 12:34:27;;;;;;;2.45;2.30;;;28.40;42.40;;;;;;5005708;28;20512;-82
2022/07/06 12:36:55;;;;;;;2.25;1.10;;;;;;;;;;5007214;28;20034;-81
2022/07/06 12:39:25;;;;;;;1.40;1.30;;;28.40;43.10;;;;;;5005972;28;20048;-81
2022/07/06 12:41:52;;;;;;;2.20;1.17;;;;;;;;;;5005461;28;20121;-82
2022/07/06 12:44:19;;;;;;;2.10;2.00;;;;;;;;;;5006936;28;20073;-81
2022/07/06 12:46:45;;;;;;;;;;;28.20;41.30;;;;;;5005911;28;20037;-81
2022/07/06 12:49:16;;;;;;;2.47;2.27;;;27.80;40.80;;;;;;5006199;28;19913;-81
2022/07/06 12:51:57;;;;;;;2.65;1.50;;;27.90;43.10;;;;;;5006887;28;20034;-82
2022/07/06 12:54:25;;;;;;;1.30;1.20;;;27.80;42.20;;;;;;5005842;28;20742;-81
2022/07/06 12:57:14;;;;;;;2.88;2.67;;;27.80;41.80;;;;;;5006063;28;20038;-81
2022/07/06 13:00:00;;;;;;;1.90;1.30;;;27.80;43.00;;;;;;5005153;28;20060;-82
2022/07/06 13:02:30;;;;;;;5.53;2.28;;;27.80;43.70;;;;;;4999127;28;20069;-81
2022/07/06 13:05:00;;;;;;;4.32;2.33;;;;;;;;;;5009418;28;20030;-82
2022/07/06 13:07:27;;;;;;;6.05;1.92;;;27.70;44.40;;;;;;5009553;28;20650;-81
2022/07/06 13:09:54;;;;;;;3.13;1.50;;;27.80;44.40;;;;;;5010253;28;20417;-81
2022/07/06 13:12:20;;;;;;;1.90;1.60;;;;;;;;;;5009659;28;20084;-81
2022/07/06 13:14:46;;;;;;;2.30;2.10;;;;;;;;;;5008240;28;20108;-82
2022/07/06 13:17:12;;;;;;;2.47;2.28;;;;;;;;;;5010130;28;20101;-80
2022/07/06 13:19:38;;;;;;;4.65;3.00;;;;;;;;;;5008442;28;20028;-81
2022/07/06 13:22:04;;;;;;;5.25;2.28;;;;;;;;;;5010871;28;20029;-81
2022/07/06 13:24:30;;;;;;;2.72;2.30;;;;;;;;;;5007961;28;20117;-81
2022/07/06 13:26:57;;;;;;;1.90;1.80;;;;;;;;;;4994718;28;20475;-81
2022/07/06 13:29:23;;;;;;;1.87;1.50;;;;;;;;;;5010013;28;20034;-81
2022/07/06 13:31:49;;;;;;;2.53;0.90;;;;;;;;;;5009484;28;20018;-82
2022/07/06 13:34:15;;;;;;;2.20;0.77;;;;;;;;;;5008812;28;20822;-81
2022/07/06 13:36:41;;;;;;;7.13;1.47;;;;;;;;;;5009952;28;20038;-81
2022/07/06 13:39:08;;;;;;;1.60;1.15;;;;;;;;;;5007897;28;20327;-80
2022/07/06 13:41:34;;;;;;;0.87;0.57;;;26.90;62.90;;;;;;4998088;28;20034;-80
2022/07/06 13:44:03;;;;;;;1.77;0.88;;;;;;;;;;5008029;28;20022;-81
2022/07/06 13:46:30;;;;;;;0.90;0.68;;;27.00;46.40;;;;;;5004972;28;20105;-81
2022/07/06 13:48:57;;;;;;;1.88;0.98;;;;;;;;;;5009457;28;20033;-81
2022/07/06 13:51:23;;;;;;;1.90;0.80;;;;;;;;;;5008654;28;20046;-81
2022/07/06 13:53:49;;;;;;;2.42;1.13;;;;;;;;;;5008907;28;20041;-80
2022/07/06 13:56:15;;;;;;;1.85;1.05;;;;;;;;;;5009467;28;20041;-80
2022/07/06 13:58:41;;;;;;;3.42;0.75;;;;;;;;;;4998489;28;20033;-80
2022/07/06 14:01:07;;;;;;;0.63;0.63;;;27.10;50.50;;;;;;5000834;28;20057;-80
2022/07/06 14:03:33;;;;;;;0.60;0.57;;;;;;;;;;5005199;28;20829;-80
2022/07/06 14:06:00;;;;;;;0.95;0.65;;;27.10;43.60;;;;;;5003724;28;20026;-81
2022/07/06 14:08:26;;;;;;;0.63;0.60;;;27.10;43.60;;;;;;5008875;28;20113;-81